Huvudsida
METAR-TAF:

METAR-TAF

Flygplatser :

Asjchabad, Turkmenistan

latitud: 37-59N, longitud: 058-22E, höjd: 211 m

Aktuellt väderrapport

Denna rapport gjordes för 34 minuter sedan, klockan 01:00 UTC
Vind 4 kt från nordost
Temperatur 21°C
Fuktighet 43%
Tryck 1014 hPa
Sikt 10 km eller mer

METAR: UTAA 220100Z 04004KT 9999 NSC 21/08 Q1014 R88/70D NOSIG

Tid: 06:34 (01:34 UTC)

Väderprognos

Denna rapport gjordes för 2 timmar och 54 minuter sedan, klockan 22:40 UTC
Prognos gäller från 22 kl. 00 UTC till 22 kl. 24 UTC
Vind 14 kt från ost/nordost
Sikt: 6000 m
Spridda moln på en höjd av 5000 ft
Temporärt
från 22 kl. 00 UTC till 22 kl. 03 UTC
Vind 12 kt från syd/sydväst
Temporärt
från 22 kl. 05 UTC till 22 kl. 14 UTC
Vind 12 kt från ost/sydost i byarna ända upp till 22 kt

TAF: UTAA 212240Z 2200/2224 07014KT 6000 SCT050 530009 TEMPO 2200/2203 20012KT TEMPO 2205/2214 12012G22KT

Aktuella väderrapporter och prognoser från 4000 flygplatser (METAR- och TAF-rapporter).

De tillgängliga stationerna syns som gula och röda prickar på kartan.

För musen över prickarna för att se namnen på stationerna.

Klicka sedan för att få väderrapporter och prognoser.

För att ändra kartan: Klicka på de gröna knapparna med ett svart kors på för att zooma in; den gröna knappen med ett streck på för att zooma ut; eller på de gröna pilarna för angränsande kartor.


METAR-TAF: